sensor_id;sensor_type;location;lat;lon;timestamp;temperature;humidity
48994;DHT22;34804;49.214;12.276;2022-11-20T00:00:55;0.10;94.50
48994;DHT22;34804;49.214;12.276;2022-11-20T00:03:22;0.10;94.50
48994;DHT22;34804;49.214;12.276;2022-11-20T00:05:49;0.10;94.60
48994;DHT22;34804;49.214;12.276;2022-11-20T00:08:16;0.10;94.60
48994;DHT22;34804;49.214;12.276;2022-11-20T00:10:42;0.10;94.50
48994;DHT22;34804;49.214;12.276;2022-11-20T00:13:10;0.00;94.40
48994;DHT22;34804;49.214;12.276;2022-11-20T00:15:37;0.10;94.60
48994;DHT22;34804;49.214;12.276;2022-11-20T00:18:05;0.10;94.40
48994;DHT22;34804;49.214;12.276;2022-11-20T00:20:31;0.10;94.50
48994;DHT22;34804;49.214;12.276;2022-11-20T00:22:59;0.10;94.50
48994;DHT22;34804;49.214;12.276;2022-11-20T00:25:25;0.20;94.80
48994;DHT22;34804;49.214;12.276;2022-11-20T00:27:56;0.20;94.50
48994;DHT22;34804;49.214;12.276;2022-11-20T00:30:23;0.20;94.50
48994;DHT22;34804;49.214;12.276;2022-11-20T00:32:49;0.20;94.40
48994;DHT22;34804;49.214;12.276;2022-11-20T00:35:16;0.20;94.40
48994;DHT22;34804;49.214;12.276;2022-11-20T00:37:43;0.30;94.70
48994;DHT22;34804;49.214;12.276;2022-11-20T00:40:10;0.30;94.40
48994;DHT22;34804;49.214;12.276;2022-11-20T00:42:37;0.30;94.20
48994;DHT22;34804;49.214;12.276;2022-11-20T00:45:04;0.30;94.20
48994;DHT22;34804;49.214;12.276;2022-11-20T00:47:31;0.30;94.20
48994;DHT22;34804;49.214;12.276;2022-11-20T00:49:58;0.30;94.10
48994;DHT22;34804;49.214;12.276;2022-11-20T00:52:25;0.30;94.10
48994;DHT22;34804;49.214;12.276;2022-11-20T00:54:52;0.20;93.90
48994;DHT22;34804;49.214;12.276;2022-11-20T00:57:19;0.20;94.10
48994;DHT22;34804;49.214;12.276;2022-11-20T00:59:46;0.30;94.20
48994;DHT22;34804;49.214;12.276;2022-11-20T01:02:12;0.20;94.10
48994;DHT22;34804;49.214;12.276;2022-11-20T01:04:39;0.30;94.40
48994;DHT22;34804;49.214;12.276;2022-11-20T01:07:06;0.30;94.40
48994;DHT22;34804;49.214;12.276;2022-11-20T01:09:33;0.20;93.90
48994;DHT22;34804;49.214;12.276;2022-11-20T01:12:00;0.20;93.90
48994;DHT22;34804;49.214;12.276;2022-11-20T01:14:26;0.10;93.90
48994;DHT22;34804;49.214;12.276;2022-11-20T01:16:53;0.10;94.20
48994;DHT22;34804;49.214;12.276;2022-11-20T01:19:22;0.20;94.30
48994;DHT22;34804;49.214;12.276;2022-11-20T01:21:52;0.20;94.10
48994;DHT22;34804;49.214;12.276;2022-11-20T01:24:20;0.10;94.10
48994;DHT22;34804;49.214;12.276;2022-11-20T01:26:49;0.10;94.10
48994;DHT22;34804;49.214;12.276;2022-11-20T01:29:22;0.20;94.20
48994;DHT22;34804;49.214;12.276;2022-11-20T01:31:50;0.20;94.20
48994;DHT22;34804;49.214;12.276;2022-11-20T01:34:20;0.30;94.50
48994;DHT22;34804;49.214;12.276;2022-11-20T01:36:47;0.30;94.50
48994;DHT22;34804;49.214;12.276;2022-11-20T01:39:19;0.30;94.30
48994;DHT22;34804;49.214;12.276;2022-11-20T01:41:47;0.30;94.30
48994;DHT22;34804;49.214;12.276;2022-11-20T01:44:56;0.30;94.40
48994;DHT22;34804;49.214;12.276;2022-11-20T01:47:40;0.40;94.20
48994;DHT22;34804;49.214;12.276;2022-11-20T01:50:20;0.40;94.30
48994;DHT22;34804;49.214;12.276;2022-11-20T01:53:02;0.40;94.00
48994;DHT22;34804;49.214;12.276;2022-11-20T01:55:34;0.40;94.10
48994;DHT22;34804;49.214;12.276;2022-11-20T01:58:03;0.50;94.30
48994;DHT22;34804;49.214;12.276;2022-11-20T02:00:30;0.50;94.30
48994;DHT22;34804;49.214;12.276;2022-11-20T02:03:03;0.50;94.30
48994;DHT22;34804;49.214;12.276;2022-11-20T02:06:03;0.50;94.00
48994;DHT22;34804;49.214;12.276;2022-11-20T02:08:33;0.40;93.60
48994;DHT22;34804;49.214;12.276;2022-11-20T02:11:00;0.40;93.70
48994;DHT22;34804;49.214;12.276;2022-11-20T02:13:27;0.40;93.60
48994;DHT22;34804;49.214;12.276;2022-11-20T02:16:25;0.40;93.80
48994;DHT22;34804;49.214;12.276;2022-11-20T02:18:54;0.40;94.00
48994;DHT22;34804;49.214;12.276;2022-11-20T02:21:47;0.40;93.90
48994;DHT22;34804;49.214;12.276;2022-11-20T02:24:18;0.40;94.00
48994;DHT22;34804;49.214;12.276;2022-11-20T02:26:57;0.40;93.90
48994;DHT22;34804;49.214;12.276;2022-11-20T02:29:32;0.30;93.90
48994;DHT22;34804;49.214;12.276;2022-11-20T02:32:00;0.40;94.10
48994;DHT22;34804;49.214;12.276;2022-11-20T02:34:28;0.40;93.90
48994;DHT22;34804;49.214;12.276;2022-11-20T02:36:56;0.40;93.90
48994;DHT22;34804;49.214;12.276;2022-11-20T02:39:25;0.40;94.10
48994;DHT22;34804;49.214;12.276;2022-11-20T02:41:56;0.30;93.60
48994;DHT22;34804;49.214;12.276;2022-11-20T02:44:23;0.30;93.80
48994;DHT22;34804;49.214;12.276;2022-11-20T02:46:50;0.30;93.80
48994;DHT22;34804;49.214;12.276;2022-11-20T02:49:16;0.30;93.70
48994;DHT22;34804;49.214;12.276;2022-11-20T02:51:43;0.30;93.90
48994;DHT22;34804;49.214;12.276;2022-11-20T02:54:10;0.30;93.80
48994;DHT22;34804;49.214;12.276;2022-11-20T02:56:40;0.30;93.60
48994;DHT22;34804;49.214;12.276;2022-11-20T02:59:07;0.30;93.80
48994;DHT22;34804;49.214;12.276;2022-11-20T03:01:34;0.30;93.80
48994;DHT22;34804;49.214;12.276;2022-11-20T03:04:01;0.30;94.00
48994;DHT22;34804;49.214;12.276;2022-11-20T03:06:28;0.30;94.20
48994;DHT22;34804;49.214;12.276;2022-11-20T03:08:56;0.30;93.90
48994;DHT22;34804;49.214;12.276;2022-11-20T03:11:23;0.30;93.90
48994;DHT22;34804;49.214;12.276;2022-11-20T03:13:50;0.30;93.90
48994;DHT22;34804;49.214;12.276;2022-11-20T03:16:21;0.30;93.90
48994;DHT22;34804;49.214;12.276;2022-11-20T03:18:48;0.30;93.80
48994;DHT22;34804;49.214;12.276;2022-11-20T03:21:16;0.30;93.90
48994;DHT22;34804;49.214;12.276;2022-11-20T03:23:43;0.40;94.20
48994;DHT22;34804;49.214;12.276;2022-11-20T03:26:18;0.40;94.20
48994;DHT22;34804;49.214;12.276;2022-11-20T03:31:19;0.50;94.30
48994;DHT22;34804;49.214;12.276;2022-11-20T03:33:47;0.50;94.20
48994;DHT22;34804;49.214;12.276;2022-11-20T03:36:15;0.60;94.20
48994;DHT22;34804;49.214;12.276;2022-11-20T03:38:42;0.60;94.20
48994;DHT22;34804;49.214;12.276;2022-11-20T03:41:12;0.50;93.90
48994;DHT22;34804;49.214;12.276;2022-11-20T03:43:38;0.50;94.00
48994;DHT22;34804;49.214;12.276;2022-11-20T03:46:06;0.50;93.90
48994;DHT22;34804;49.214;12.276;2022-11-20T03:48:33;0.50;93.90
48994;DHT22;34804;49.214;12.276;2022-11-20T03:51:15;0.50;93.90
48994;DHT22;34804;49.214;12.276;2022-11-20T03:53:43;0.50;93.80
48994;DHT22;34804;49.214;12.276;2022-11-20T03:56:12;0.50;93.90
48994;DHT22;34804;49.214;12.276;2022-11-20T03:58:41;0.50;94.00
48994;DHT22;34804;49.214;12.276;2022-11-20T04:01:11;0.50;94.00
48994;DHT22;34804;49.214;12.276;2022-11-20T04:03:40;0.50;93.80
48994;DHT22;34804;49.214;12.276;2022-11-20T04:06:14;0.50;93.90
48994;DHT22;34804;49.214;12.276;2022-11-20T04:08:41;0.50;94.00
48994;DHT22;34804;49.214;12.276;2022-11-20T04:13:35;0.60;94.40
48994;DHT22;34804;49.214;12.276;2022-11-20T04:16:03;0.60;94.20
48994;DHT22;34804;49.214;12.276;2022-11-20T04:18:30;0.50;93.90
48994;DHT22;34804;49.214;12.276;2022-11-20T04:20:57;0.50;94.00
48994;DHT22;34804;49.214;12.276;2022-11-20T04:23:25;0.40;94.00
48994;DHT22;34804;49.214;12.276;2022-11-20T04:25:54;0.50;94.20
48994;DHT22;34804;49.214;12.276;2022-11-20T04:28:21;0.40;94.00
48994;DHT22;34804;49.214;12.276;2022-11-20T04:30:48;0.50;94.10
48994;DHT22;34804;49.214;12.276;2022-11-20T04:33:15;0.50;94.40
48994;DHT22;34804;49.214;12.276;2022-11-20T04:35:41;0.60;94.30
48994;DHT22;34804;49.214;12.276;2022-11-20T04:38:08;0.60;94.20
48994;DHT22;34804;49.214;12.276;2022-11-20T04:40:35;0.60;94.20
48994;DHT22;34804;49.214;12.276;2022-11-20T04:43:02;0.50;94.20
48994;DHT22;34804;49.214;12.276;2022-11-20T04:45:29;0.60;94.30
48994;DHT22;34804;49.214;12.276;2022-11-20T04:47:55;0.60;94.30
48994;DHT22;34804;49.214;12.276;2022-11-20T04:50:22;0.60;94.40
48994;DHT22;34804;49.214;12.276;2022-11-20T04:52:49;0.60;94.30
48994;DHT22;34804;49.214;12.276;2022-11-20T04:55:16;0.60;94.30
48994;DHT22;34804;49.214;12.276;2022-11-20T04:57:42;0.60;94.30
48994;DHT22;34804;49.214;12.276;2022-11-20T05:00:09;0.60;94.30
48994;DHT22;34804;49.214;12.276;2022-11-20T05:02:36;0.60;94.30
48994;DHT22;34804;49.214;12.276;2022-11-20T05:05:03;0.60;94.30
48994;DHT22;34804;49.214;12.276;2022-11-20T05:07:30;0.60;94.30
48994;DHT22;34804;49.214;12.276;2022-11-20T05:09:57;0.60;94.40
48994;DHT22;34804;49.214;12.276;2022-11-20T05:12:24;0.60;94.40
48994;DHT22;34804;49.214;12.276;2022-11-20T05:14:51;0.70;94.70
48994;DHT22;34804;49.214;12.276;2022-11-20T05:17:17;0.60;94.50
48994;DHT22;34804;49.214;12.276;2022-11-20T05:19:44;0.70;94.50
48994;DHT22;34804;49.214;12.276;2022-11-20T05:22:17;0.70;94.60
48994;DHT22;34804;49.214;12.276;2022-11-20T05:24:44;0.70;94.60
48994;DHT22;34804;49.214;12.276;2022-11-20T05:27:10;0.70;94.70
48994;DHT22;34804;49.214;12.276;2022-11-20T05:29:37;0.70;94.70
48994;DHT22;34804;49.214;12.276;2022-11-20T05:32:04;0.80;94.70
48994;DHT22;34804;49.214;12.276;2022-11-20T05:34:32;0.70;94.60
48994;DHT22;34804;49.214;12.276;2022-11-20T05:36:59;0.70;94.50
48994;DHT22;34804;49.214;12.276;2022-11-20T05:39:25;0.80;94.60
48994;DHT22;34804;49.214;12.276;2022-11-20T05:41:52;0.80;94.60
48994;DHT22;34804;49.214;12.276;2022-11-20T05:44:39;0.70;94.20
48994;DHT22;34804;49.214;12.276;2022-11-20T05:47:06;0.80;94.50
48994;DHT22;34804;49.214;12.276;2022-11-20T05:49:33;0.70;94.50
48994;DHT22;34804;49.214;12.276;2022-11-20T05:51:59;0.70;94.30
48994;DHT22;34804;49.214;12.276;2022-11-20T05:54:26;0.70;94.60
48994;DHT22;34804;49.214;12.276;2022-11-20T05:56:53;0.70;94.60
48994;DHT22;34804;49.214;12.276;2022-11-20T05:59:19;0.70;94.60
48994;DHT22;34804;49.214;12.276;2022-11-20T06:01:47;0.70;94.40
48994;DHT22;34804;49.214;12.276;2022-11-20T06:04:13;0.50;94.40
48994;DHT22;34804;49.214;12.276;2022-11-20T06:06:40;0.50;94.40
48994;DHT22;34804;49.214;12.276;2022-11-20T06:09:07;0.50;94.40
48994;DHT22;34804;49.214;12.276;2022-11-20T06:11:34;0.50;94.40
48994;DHT22;34804;49.214;12.276;2022-11-20T06:14:00;0.50;94.50
48994;DHT22;34804;49.214;12.276;2022-11-20T06:16:27;0.50;94.60
48994;DHT22;34804;49.214;12.276;2022-11-20T06:18:54;0.40;94.80
48994;DHT22;34804;49.214;12.276;2022-11-20T06:21:22;0.40;94.90
48994;DHT22;34804;49.214;12.276;2022-11-20T06:23:49;0.50;95.00
48994;DHT22;34804;49.214;12.276;2022-11-20T06:26:19;0.50;94.90
48994;DHT22;34804;49.214;12.276;2022-11-20T06:28:46;0.50;94.90
48994;DHT22;34804;49.214;12.276;2022-11-20T06:31:15;0.50;94.90
48994;DHT22;34804;49.214;12.276;2022-11-20T06:33:43;0.50;94.80
48994;DHT22;34804;49.214;12.276;2022-11-20T06:36:12;0.50;95.00
48994;DHT22;34804;49.214;12.276;2022-11-20T06:38:39;0.60;95.20
48994;DHT22;34804;49.214;12.276;2022-11-20T06:41:10;0.70;95.40
48994;DHT22;34804;49.214;12.276;2022-11-20T06:43:37;0.80;95.20
48994;DHT22;34804;49.214;12.276;2022-11-20T06:46:04;0.70;95.00
48994;DHT22;34804;49.214;12.276;2022-11-20T06:48:30;0.70;94.90
48994;DHT22;34804;49.214;12.276;2022-11-20T06:50:57;0.70;95.00
48994;DHT22;34804;49.214;12.276;2022-11-20T06:53:25;0.70;94.90
48994;DHT22;34804;49.214;12.276;2022-11-20T06:55:52;0.70;95.00
48994;DHT22;34804;49.214;12.276;2022-11-20T06:58:21;0.70;94.90
48994;DHT22;34804;49.214;12.276;2022-11-20T07:00:48;0.70;95.00
48994;DHT22;34804;49.214;12.276;2022-11-20T07:03:15;0.80;95.00
48994;DHT22;34804;49.214;12.276;2022-11-20T07:05:41;0.80;94.90
48994;DHT22;34804;49.214;12.276;2022-11-20T07:08:08;0.80;94.90
48994;DHT22;34804;49.214;12.276;2022-11-20T07:10:35;0.80;95.00
48994;DHT22;34804;49.214;12.276;2022-11-20T07:13:02;0.90;95.10
48994;DHT22;34804;49.214;12.276;2022-11-20T07:15:29;1.00;95.20
48994;DHT22;34804;49.214;12.276;2022-11-20T07:17:59;1.00;95.20
48994;DHT22;34804;49.214;12.276;2022-11-20T07:20:26;1.10;95.20
48994;DHT22;34804;49.214;12.276;2022-11-20T07:22:57;1.10;94.90
48994;DHT22;34804;49.214;12.276;2022-11-20T07:25:25;1.00;94.60
48994;DHT22;34804;49.214;12.276;2022-11-20T07:27:56;0.90;94.60
48994;DHT22;34804;49.214;12.276;2022-11-20T07:30:23;0.90;94.70
48994;DHT22;34804;49.214;12.276;2022-11-20T07:32:53;0.90;94.70
48994;DHT22;34804;49.214;12.276;2022-11-20T07:35:20;0.80;94.80
48994;DHT22;34804;49.214;12.276;2022-11-20T07:37:47;0.80;95.00
48994;DHT22;34804;49.214;12.276;2022-11-20T07:40:16;0.80;95.10
48994;DHT22;34804;49.214;12.276;2022-11-20T07:42:52;0.80;95.10
48994;DHT22;34804;49.214;12.276;2022-11-20T07:45:20;0.80;95.30
48994;DHT22;34804;49.214;12.276;2022-11-20T07:47:47;0.80;95.40
48994;DHT22;34804;49.214;12.276;2022-11-20T07:50:15;0.80;95.30
48994;DHT22;34804;49.214;12.276;2022-11-20T07:52:42;0.80;95.40
48994;DHT22;34804;49.214;12.276;2022-11-20T07:55:10;0.80;95.30
48994;DHT22;34804;49.214;12.276;2022-11-20T07:57:37;0.80;95.30
48994;DHT22;34804;49.214;12.276;2022-11-20T08:00:05;0.90;95.60
48994;DHT22;34804;49.214;12.276;2022-11-20T08:02:33;1.00;95.50
48994;DHT22;34804;49.214;12.276;2022-11-20T08:05:00;1.00;95.40
48994;DHT22;34804;49.214;12.276;2022-11-20T08:07:27;1.10;95.40
48994;DHT22;34804;49.214;12.276;2022-11-20T08:09:54;1.10;95.50
48994;DHT22;34804;49.214;12.276;2022-11-20T08:12:21;1.20;95.30
48994;DHT22;34804;49.214;12.276;2022-11-20T08:15:07;1.20;95.20
48994;DHT22;34804;49.214;12.276;2022-11-20T08:17:39;1.20;95.10
48994;DHT22;34804;49.214;12.276;2022-11-20T08:20:06;1.20;94.90
48994;DHT22;34804;49.214;12.276;2022-11-20T08:22:33;1.20;94.90
48994;DHT22;34804;49.214;12.276;2022-11-20T08:24:59;1.20;94.80
48994;DHT22;34804;49.214;12.276;2022-11-20T08:27:26;1.20;94.90
48994;DHT22;34804;49.214;12.276;2022-11-20T08:29:53;1.30;94.90
48994;DHT22;34804;49.214;12.276;2022-11-20T08:32:20;1.30;95.10
48994;DHT22;34804;49.214;12.276;2022-11-20T08:34:47;1.40;95.10
48994;DHT22;34804;49.214;12.276;2022-11-20T08:37:13;1.40;95.20
48994;DHT22;34804;49.214;12.276;2022-11-20T08:39:40;1.50;95.20
48994;DHT22;34804;49.214;12.276;2022-11-20T08:42:07;1.50;95.00
48994;DHT22;34804;49.214;12.276;2022-11-20T08:44:34;1.50;94.90
48994;DHT22;34804;49.214;12.276;2022-11-20T08:47:01;1.50;94.90
48994;DHT22;34804;49.214;12.276;2022-11-20T08:49:28;1.50;94.90
48994;DHT22;34804;49.214;12.276;2022-11-20T08:51:55;1.60;94.90
48994;DHT22;34804;49.214;12.276;2022-11-20T08:54:21;1.60;94.70
48994;DHT22;34804;49.214;12.276;2022-11-20T08:56:49;1.70;94.80
48994;DHT22;34804;49.214;12.276;2022-11-20T08:59:16;1.80;94.90
48994;DHT22;34804;49.214;12.276;2022-11-20T09:02:02;1.80;94.80
48994;DHT22;34804;49.214;12.276;2022-11-20T09:04:29;1.70;94.20
48994;DHT22;34804;49.214;12.276;2022-11-20T09:06:56;1.80;94.40
48994;DHT22;34804;49.214;12.276;2022-11-20T09:09:23;1.70;94.40
48994;DHT22;34804;49.214;12.276;2022-11-20T09:11:50;1.70;94.60
48994;DHT22;34804;49.214;12.276;2022-11-20T09:14:17;1.80;94.70
48994;DHT22;34804;49.214;12.276;2022-11-20T09:16:45;1.80;94.70
48994;DHT22;34804;49.214;12.276;2022-11-20T09:19:12;1.80;94.70
48994;DHT22;34804;49.214;12.276;2022-11-20T09:21:59;1.80;94.80
48994;DHT22;34804;49.214;12.276;2022-11-20T09:24:27;1.70;94.40
48994;DHT22;34804;49.214;12.276;2022-11-20T09:26:54;1.70;94.60
48994;DHT22;34804;49.214;12.276;2022-11-20T09:29:21;1.70;94.50
48994;DHT22;34804;49.214;12.276;2022-11-20T09:31:49;1.80;94.80
48994;DHT22;34804;49.214;12.276;2022-11-20T09:34:15;1.80;94.80
48994;DHT22;34804;49.214;12.276;2022-11-20T09:36:43;1.80;94.60
48994;DHT22;34804;49.214;12.276;2022-11-20T09:39:10;1.80;94.50
48994;DHT22;34804;49.214;12.276;2022-11-20T09:47:13;1.70;94.60
48994;DHT22;34804;49.214;12.276;2022-11-20T09:55:08;1.80;94.60
48994;DHT22;34804;49.214;12.276;2022-11-20T09:57:39;1.80;94.90
48994;DHT22;34804;49.214;12.276;2022-11-20T10:00:10;1.90;95.10
48994;DHT22;34804;49.214;12.276;2022-11-20T10:08:18;2.20;94.70
48994;DHT22;34804;49.214;12.276;2022-11-20T10:10:53;2.10;94.40
48994;DHT22;34804;49.214;12.276;2022-11-20T10:26:47;2.70;94.30
48994;DHT22;34804;49.214;12.276;2022-11-20T10:29:24;2.90;94.30
48994;DHT22;34804;49.214;12.276;2022-11-20T10:32:00;3.10;94.20
48994;DHT22;34804;49.214;12.276;2022-11-20T10:36:58;3.40;94.10
48994;DHT22;34804;49.214;12.276;2022-11-20T10:39:41;3.50;93.80
48994;DHT22;34804;49.214;12.276;2022-11-20T10:42:11;3.70;93.70
48994;DHT22;34804;49.214;12.276;2022-11-20T10:44:47;3.80;93.70
48994;DHT22;34804;49.214;12.276;2022-11-20T10:47:32;3.90;93.50
48994;DHT22;34804;49.214;12.276;2022-11-20T10:50:03;4.10;93.40
48994;DHT22;34804;49.214;12.276;2022-11-20T10:53:00;4.30;92.80
48994;DHT22;34804;49.214;12.276;2022-11-20T10:55:55;4.30;92.70
48994;DHT22;34804;49.214;12.276;2022-11-20T11:00:51;4.50;92.50
48994;DHT22;34804;49.214;12.276;2022-11-20T11:03:26;4.50;92.60
48994;DHT22;34804;49.214;12.276;2022-11-20T11:06:13;4.60;92.80
48994;DHT22;34804;49.214;12.276;2022-11-20T11:08:43;4.50;92.40
48994;DHT22;34804;49.214;12.276;2022-11-20T11:11:20;4.60;92.30
48994;DHT22;34804;49.214;12.276;2022-11-20T11:13:48;4.60;92.50
48994;DHT22;34804;49.214;12.276;2022-11-20T11:16:34;4.60;92.70
48994;DHT22;34804;49.214;12.276;2022-11-20T11:19:12;4.70;92.40
48994;DHT22;34804;49.214;12.276;2022-11-20T11:21:47;4.70;92.30
48994;DHT22;34804;49.214;12.276;2022-11-20T11:24:26;4.70;92.40
48994;DHT22;34804;49.214;12.276;2022-11-20T11:27:14;4.70;92.30
48994;DHT22;34804;49.214;12.276;2022-11-20T11:29:45;4.80;92.60
48994;DHT22;34804;49.214;12.276;2022-11-20T11:32:19;4.80;92.50
48994;DHT22;34804;49.214;12.276;2022-11-20T11:35:00;4.80;92.20
48994;DHT22;34804;49.214;12.276;2022-11-20T11:37:33;4.90;92.30
48994;DHT22;34804;49.214;12.276;2022-11-20T11:40:03;4.90;92.40
48994;DHT22;34804;49.214;12.276;2022-11-20T11:42:58;4.90;92.10
48994;DHT22;34804;49.214;12.276;2022-11-20T11:45:27;5.00;92.10
48994;DHT22;34804;49.214;12.276;2022-11-20T11:47:57;5.10;91.90
48994;DHT22;34804;49.214;12.276;2022-11-20T11:50:26;5.10;92.10
48994;DHT22;34804;49.214;12.276;2022-11-20T11:53:08;5.20;92.00
48994;DHT22;34804;49.214;12.276;2022-11-20T12:00:50;5.20;91.90
48994;DHT22;34804;49.214;12.276;2022-11-20T12:03:24;5.10;92.00
48994;DHT22;34804;49.214;12.276;2022-11-20T12:06:04;5.10;92.20
48994;DHT22;34804;49.214;12.276;2022-11-20T12:08:56;5.10;91.90
48994;DHT22;34804;49.214;12.276;2022-11-20T12:16:53;5.10;92.20
48994;DHT22;34804;49.214;12.276;2022-11-20T12:19:22;5.10;92.00
48994;DHT22;34804;49.214;12.276;2022-11-20T12:22:30;5.20;91.90
48994;DHT22;34804;49.214;12.276;2022-11-20T12:34:37;5.30;91.70
48994;DHT22;34804;49.214;12.276;2022-11-20T12:37:30;5.30;91.60
48994;DHT22;34804;49.214;12.276;2022-11-20T12:43:09;5.30;91.60
48994;DHT22;34804;49.214;12.276;2022-11-20T12:48:52;5.30;91.60
48994;DHT22;34804;49.214;12.276;2022-11-20T12:54:22;5.40;91.50
48994;DHT22;34804;49.214;12.276;2022-11-20T12:59:59;5.40;91.70
48994;DHT22;34804;49.214;12.276;2022-11-20T13:02:44;5.40;91.40
48994;DHT22;34804;49.214;12.276;2022-11-20T13:05:24;5.30;92.00
48994;DHT22;34804;49.214;12.276;2022-11-20T13:07:53;5.30;92.60
48994;DHT22;34804;49.214;12.276;2022-11-20T13:10:36;5.20;92.70
48994;DHT22;34804;49.214;12.276;2022-11-20T13:16:12;5.10;93.30
48994;DHT22;34804;49.214;12.276;2022-11-20T13:18:41;5.10;93.30
48994;DHT22;34804;49.214;12.276;2022-11-20T13:21:17;5.10;93.70
48994;DHT22;34804;49.214;12.276;2022-11-20T13:23:44;5.10;92.30
48994;DHT22;34804;49.214;12.276;2022-11-20T13:26:22;5.10;91.40
48994;DHT22;34804;49.214;12.276;2022-11-20T13:29:09;5.00;90.40
48994;DHT22;34804;49.214;12.276;2022-11-20T13:31:42;5.00;90.20
48994;DHT22;34804;49.214;12.276;2022-11-20T13:34:12;5.00;90.00
48994;DHT22;34804;49.214;12.276;2022-11-20T13:37:00;5.00;90.10
48994;DHT22;34804;49.214;12.276;2022-11-20T13:39:36;4.90;90.10
48994;DHT22;34804;49.214;12.276;2022-11-20T13:42:23;4.80;90.80
48994;DHT22;34804;49.214;12.276;2022-11-20T13:44:54;4.80;90.60
48994;DHT22;34804;49.214;12.276;2022-11-20T13:47:26;4.70;91.00
48994;DHT22;34804;49.214;12.276;2022-11-20T13:49:55;4.70;91.20
48994;DHT22;34804;49.214;12.276;2022-11-20T13:55:13;4.60;91.90
48994;DHT22;34804;49.214;12.276;2022-11-20T14:00:28;4.60;92.10
48994;DHT22;34804;49.214;12.276;2022-11-20T14:03:09;4.50;91.60
48994;DHT22;34804;49.214;12.276;2022-11-20T14:05:40;4.40;92.10
48994;DHT22;34804;49.214;12.276;2022-11-20T14:08:25;4.40;92.20
48994;DHT22;34804;49.214;12.276;2022-11-20T14:11:11;4.40;92.50
48994;DHT22;34804;49.214;12.276;2022-11-20T14:13:39;4.40;92.70
48994;DHT22;34804;49.214;12.276;2022-11-20T14:16:05;4.30;92.90
48994;DHT22;34804;49.214;12.276;2022-11-20T14:18:32;4.30;93.00
48994;DHT22;34804;49.214;12.276;2022-11-20T14:21:02;4.20;92.90
48994;DHT22;34804;49.214;12.276;2022-11-20T14:23:30;4.20;92.90
48994;DHT22;34804;49.214;12.276;2022-11-20T14:25:57;4.20;93.20
48994;DHT22;34804;49.214;12.276;2022-11-20T14:28:29;4.20;93.20
48994;DHT22;34804;49.214;12.276;2022-11-20T14:30:57;4.20;93.30
48994;DHT22;34804;49.214;12.276;2022-11-20T14:33:26;4.20;93.20
48994;DHT22;34804;49.214;12.276;2022-11-20T14:35:57;4.20;93.30
48994;DHT22;34804;49.214;12.276;2022-11-20T14:38:27;4.20;93.20
48994;DHT22;34804;49.214;12.276;2022-11-20T14:41:05;4.20;93.30
48994;DHT22;34804;49.214;12.276;2022-11-20T14:43:31;4.20;93.30
48994;DHT22;34804;49.214;12.276;2022-11-20T14:46:05;4.10;93.30
48994;DHT22;34804;49.214;12.276;2022-11-20T14:48:46;4.10;93.30
48994;DHT22;34804;49.214;12.276;2022-11-20T14:51:31;4.10;93.40
48994;DHT22;34804;49.214;12.276;2022-11-20T14:54:12;4.10;93.40
48994;DHT22;34804;49.214;12.276;2022-11-20T14:56:40;4.10;93.50
48994;DHT22;34804;49.214;12.276;2022-11-20T14:59:08;4.10;93.70
48994;DHT22;34804;49.214;12.276;2022-11-20T15:01:35;4.10;93.70
48994;DHT22;34804;49.214;12.276;2022-11-20T15:04:06;4.10;93.40
48994;DHT22;34804;49.214;12.276;2022-11-20T15:06:34;4.10;93.50
48994;DHT22;34804;49.214;12.276;2022-11-20T15:09:03;4.10;93.80
48994;DHT22;34804;49.214;12.276;2022-11-20T15:11:34;4.10;93.70
48994;DHT22;34804;49.214;12.276;2022-11-20T15:14:04;4.10;93.90
48994;DHT22;34804;49.214;12.276;2022-11-20T15:16:32;4.10;94.10
48994;DHT22;34804;49.214;12.276;2022-11-20T15:19:00;4.00;94.00
48994;DHT22;34804;49.214;12.276;2022-11-20T15:21:28;4.00;94.20
48994;DHT22;34804;49.214;12.276;2022-11-20T15:23:57;4.00;94.40
48994;DHT22;34804;49.214;12.276;2022-11-20T15:26:26;4.00;94.50
48994;DHT22;34804;49.214;12.276;2022-11-20T15:28:54;4.00;94.50
48994;DHT22;34804;49.214;12.276;2022-11-20T15:31:22;4.00;94.60
48994;DHT22;34804;49.214;12.276;2022-11-20T15:33:50;3.90;94.30
48994;DHT22;34804;49.214;12.276;2022-11-20T15:36:16;3.90;94.50
48994;DHT22;34804;49.214;12.276;2022-11-20T15:38:43;3.90;94.40
48994;DHT22;34804;49.214;12.276;2022-11-20T15:41:10;3.90;94.40
48994;DHT22;34804;49.214;12.276;2022-11-20T15:43:37;3.90;94.50
48994;DHT22;34804;49.214;12.276;2022-11-20T15:46:09;3.80;94.50
48994;DHT22;34804;49.214;12.276;2022-11-20T15:48:39;3.80;94.40
48994;DHT22;34804;49.214;12.276;2022-11-20T15:51:26;3.80;94.30
48994;DHT22;34804;49.214;12.276;2022-11-20T15:53:54;3.80;93.90
48994;DHT22;34804;49.214;12.276;2022-11-20T15:56:21;3.80;94.20
48994;DHT22;34804;49.214;12.276;2022-11-20T15:58:49;3.70;94.30
48994;DHT22;34804;49.214;12.276;2022-11-20T16:01:18;3.70;94.50
48994;DHT22;34804;49.214;12.276;2022-11-20T16:03:46;3.60;94.60
48994;DHT22;34804;49.214;12.276;2022-11-20T16:06:13;3.60;94.60
48994;DHT22;34804;49.214;12.276;2022-11-20T16:08:40;3.60;94.80
48994;DHT22;34804;49.214;12.276;2022-11-20T16:11:06;3.70;94.80
48994;DHT22;34804;49.214;12.276;2022-11-20T16:13:35;3.60;94.60
48994;DHT22;34804;49.214;12.276;2022-11-20T16:16:23;3.70;94.50
48994;DHT22;34804;49.214;12.276;2022-11-20T16:18:54;3.70;94.40
48994;DHT22;34804;49.214;12.276;2022-11-20T16:21:21;3.70;94.20
48994;DHT22;34804;49.214;12.276;2022-11-20T16:23:54;3.70;94.20
48994;DHT22;34804;49.214;12.276;2022-11-20T16:26:20;3.70;94.10
48994;DHT22;34804;49.214;12.276;2022-11-20T16:28:47;3.60;94.10
48994;DHT22;34804;49.214;12.276;2022-11-20T16:31:16;3.60;94.30
48994;DHT22;34804;49.214;12.276;2022-11-20T16:33:49;3.60;94.30
48994;DHT22;34804;49.214;12.276;2022-11-20T16:36:17;3.60;94.40
48994;DHT22;34804;49.214;12.276;2022-11-20T16:38:46;3.60;94.40
48994;DHT22;34804;49.214;12.276;2022-11-20T16:41:13;3.60;94.40
48994;DHT22;34804;49.214;12.276;2022-11-20T16:43:54;3.60;94.40
48994;DHT22;34804;49.214;12.276;2022-11-20T16:46:28;3.60;94.60
48994;DHT22;34804;49.214;12.276;2022-11-20T16:49:11;3.60;94.50
48994;DHT22;34804;49.214;12.276;2022-11-20T16:51:38;3.60;94.40
48994;DHT22;34804;49.214;12.276;2022-11-20T16:54:07;3.60;94.30
48994;DHT22;34804;49.214;12.276;2022-11-20T16:56:35;3.60;94.40
48994;DHT22;34804;49.214;12.276;2022-11-20T16:59:03;3.60;94.60
48994;DHT22;34804;49.214;12.276;2022-11-20T17:01:31;3.60;94.50
48994;DHT22;34804;49.214;12.276;2022-11-20T17:04:03;3.60;94.70
48994;DHT22;34804;49.214;12.276;2022-11-20T17:06:40;3.60;94.80
48994;DHT22;34804;49.214;12.276;2022-11-20T17:09:07;3.60;94.70
48994;DHT22;34804;49.214;12.276;2022-11-20T17:11:37;3.60;94.80